Time;durP1;ratioP1;P1;durP2;ratioP2;P2;SDS_P1;SDS_P2;PMS_P1;PMS_P2;Temp;Humidity;BMP_temperature;BMP_pressure;BME280_temperature;BME280_humidity;BME280_pressure;Samples;Min_cycle;Max_cycle;Signal;HPM_P1;HPM_P2
2021/12/20 00:02:09;;;;;;;3.90;0.90;;;;;;;-0.59;100.00;101215.31;5048139;28;20220;-71
2021/12/20 00:04:36;;;;;;;5.87;1.37;;;;;;;-0.66;100.00;101215.94;5043354;28;20199;-71
2021/12/20 00:07:03;;;;;;;2.03;0.93;;;;;;;-0.65;100.00;101215.09;5050310;28;20209;-71
2021/12/20 00:09:29;;;;;;;3.83;1.50;;;;;;;-0.62;100.00;101216.06;5044503;28;20212;-71
2021/12/20 00:11:56;;;;;;;1.50;0.93;;;;;;;-0.62;100.00;101222.88;5049783;28;20232;-71
2021/12/20 00:14:23;;;;;;;1.67;0.93;;;;;;;-0.63;100.00;101226.28;5042423;28;20203;-71
2021/12/20 00:16:50;;;;;;;2.87;0.90;;;;;;;-0.68;100.00;101232.97;5045515;28;20202;-71
2021/12/20 00:19:16;;;;;;;3.27;0.90;;;;;;;-0.67;100.00;101240.69;5042917;28;20207;-71
2021/12/20 00:21:43;;;;;;;4.40;0.80;;;;;;;-0.71;100.00;101235.44;5050981;28;20194;-71
2021/12/20 00:24:09;;;;;;;5.43;1.13;;;;;;;-0.70;100.00;101242.28;5052531;28;20203;-71
2021/12/20 00:26:35;;;;;;;3.60;1.03;;;;;;;-0.75;100.00;101229.34;5041351;28;20227;-71
2021/12/20 00:29:02;;;;;;;4.60;1.10;;;;;;;-0.77;100.00;101231.88;5051458;28;20200;-71
2021/12/20 00:31:29;;;;;;;1.40;1.00;;;;;;;-0.78;100.00;101232.66;5040102;28;20223;-71
2021/12/20 00:33:56;;;;;;;5.43;1.03;;;;;;;-0.80;100.00;101236.03;5045946;28;20724;-71
2021/12/20 00:36:24;;;;;;;4.43;1.40;;;;;;;-0.87;100.00;101245.22;5044148;28;20596;-71
2021/12/20 00:41:34;;;;;;;3.40;1.17;;;;;;;-0.83;100.00;101239.34;5041833;28;20229;-71
2021/12/20 00:44:01;;;;;;;5.57;1.27;;;;;;;-0.85;100.00;101235.88;5046143;28;20199;-72
2021/12/20 00:46:28;;;;;;;4.93;1.30;;;;;;;-0.86;100.00;101234.16;5040459;28;20219;-71
2021/12/20 00:48:56;;;;;;;4.93;1.30;;;;;;;-0.87;100.00;101246.91;5050827;28;20249;-71
2021/12/20 00:51:22;;;;;;;2.50;1.10;;;;;;;-0.93;100.00;101250.16;5045584;28;20214;-71
2021/12/20 00:53:49;;;;;;;4.07;0.97;;;;;;;-0.93;100.00;101252.72;5044280;28;20683;-71
2021/12/20 00:56:15;;;;;;;3.53;1.07;;;;;;;-0.98;100.00;101250.00;5043813;28;20657;-71
2021/12/20 00:58:42;;;;;;;4.73;0.90;;;;;;;-1.01;100.00;101249.91;5043699;28;20692;-71
2021/12/20 01:01:10;;;;;;;3.40;1.10;;;;;;;-1.03;100.00;101250.69;5053493;28;20704;-71
2021/12/20 01:03:37;;;;;;;2.20;0.93;;;;;;;-1.04;100.00;101249.81;5041362;28;20278;-71
2021/12/20 01:06:05;;;;;;;3.13;0.77;;;;;;;-1.06;100.00;101250.59;5046660;28;20237;-71
2021/12/20 01:08:35;;;;;;;1.33;0.83;;;;;;;-1.08;100.00;101247.13;5041008;28;20223;-71
2021/12/20 01:11:02;;;;;;;3.50;1.00;;;;;;;-1.09;100.00;101251.38;5042290;28;20219;-71
2021/12/20 01:13:30;;;;;;;2.13;0.80;;;;;;;-1.12;100.00;101245.28;5042361;28;20707;-71
2021/12/20 01:16:00;;;;;;;1.77;1.00;;;;;;;-1.11;100.00;101258.09;5047868;28;20206;-71
2021/12/20 01:18:26;;;;;;;4.30;0.80;;;;;;;-1.08;100.00;101254.78;5039569;28;20586;-71
2021/12/20 01:20:53;;;;;;;6.67;1.00;;;;;;;-1.11;100.00;101260.66;5041768;28;20219;-71
2021/12/20 01:23:21;;;;;;;2.30;1.00;;;;;;;-1.16;100.00;101257.97;5050917;28;20556;-71
2021/12/20 01:25:48;;;;;;;5.40;0.90;;;;;;;-1.18;100.00;101256.19;5049944;28;20209;-71
2021/12/20 01:28:14;;;;;;;1.77;0.73;;;;;;;-1.20;100.00;101266.34;5040496;28;20219;-71
2021/12/20 01:30:42;;;;;;;1.87;0.87;;;;;;;-1.13;100.00;101269.13;5044588;28;20218;-71
2021/12/20 01:33:11;;;;;;;2.23;0.93;;;;;;;-1.17;100.00;101271.59;5046440;28;20211;-71
2021/12/20 01:35:38;;;;;;;2.53;0.97;;;;;;;-1.23;100.00;101276.53;5045702;28;20290;-71
2021/12/20 01:38:05;;;;;;;7.90;1.00;;;;;;;-1.23;100.00;101280.75;5048676;28;20199;-71
2021/12/20 01:40:35;;;;;;;1.90;0.70;;;;;;;-1.20;100.00;101278.28;5039494;28;20716;-71
2021/12/20 01:43:01;;;;;;;1.77;0.97;;;;;;;-1.22;100.00;101283.34;5043996;28;20639;-71
2021/12/20 01:45:29;;;;;;;5.23;1.00;;;;;;;-1.29;100.00;101280.56;5045690;28;20635;-71
2021/12/20 01:48:03;;;;;;;2.63;1.57;;;;;;;-1.29;100.00;101283.13;5049719;28;20217;-71
2021/12/20 01:50:41;;;;;;;18.23;7.43;;;;;;;-1.32;100.00;101283.88;5038062;28;20588;-71
2021/12/20 01:53:08;;;;;;;6.80;3.60;;;;;;;-1.35;100.00;101296.59;5044924;28;20658;-71
2021/12/20 01:55:36;;;;;;;1.73;1.00;;;;;;;-1.38;100.00;101289.66;5037697;28;20194;-71
2021/12/20 01:58:03;;;;;;;1.40;0.90;;;;;;;-1.37;100.00;101291.41;5046128;28;20204;-72
2021/12/20 02:00:30;;;;;;;7.07;1.10;;;;;;;-1.39;100.00;101293.06;5045587;28;20312;-72
2021/12/20 02:03:00;;;;;;;2.60;0.90;;;;;;;-1.40;100.00;101291.31;5041469;28;20210;-71
2021/12/20 02:05:45;;;;;;;3.50;0.90;;;;;;;-1.43;100.00;101290.34;5057875;28;20206;-71
2021/12/20 02:08:18;;;;;;;2.43;1.00;;;;;;;-1.48;100.00;101294.44;5037566;28;20219;-71
2021/12/20 02:10:46;;;;;;;3.33;0.90;;;;;;;-1.54;100.00;101289.97;5048701;28;20245;-71
2021/12/20 02:13:13;;;;;;;3.80;1.10;;;;;;;-1.54;100.00;101287.41;5040981;28;20204;-71
2021/12/20 02:15:40;;;;;;;3.10;0.80;;;;;;;-1.60;100.00;101293.22;5047758;28;20318;-71
2021/12/20 02:18:06;;;;;;;3.07;1.00;;;;;;;-1.61;100.00;101296.56;5048877;28;20195;-71
2021/12/20 02:20:36;;;;;;;1.10;1.00;;;;;;;-1.65;100.00;101311.75;5042580;28;20220;-71
2021/12/20 02:23:04;;;;;;;1.37;1.07;;;;;;;-1.70;100.00;101310.75;5044125;28;20214;-71
2021/12/20 02:25:32;;;;;;;3.13;1.10;;;;;;;-1.71;100.00;101312.41;5053628;28;20225;-71
2021/12/20 02:28:04;;;;;;;4.27;1.00;;;;;;;-1.72;100.00;101321.78;5041859;28;20226;-71
2021/12/20 02:30:45;;;;;;;2.73;1.07;;;;;;;-1.70;100.00;101319.28;5052553;28;20230;-71
2021/12/20 02:38:44;;;;;;;2.43;1.00;;;;;;;-1.74;100.00;101308.06;5041161;28;20460;-71
2021/12/20 02:41:13;;;;;;;0.70;0.70;;;;;;;-1.76;100.00;101299.47;5053991;28;20253;-71
2021/12/20 02:43:42;;;;;;;1.83;1.13;;;;;;;-1.74;100.00;101302.09;5045067;28;20199;-71
2021/12/20 02:46:26;;;;;;;1.70;1.00;;;;;;;-1.76;100.00;101304.59;5046697;28;20209;-71
2021/12/20 02:48:53;;;;;;;3.43;0.93;;;;;;;-1.76;100.00;101303.69;5042240;28;20228;-71
2021/12/20 02:51:23;;;;;;;2.03;0.90;;;;;;;-1.77;100.00;101310.50;5042836;28;20224;-71
2021/12/20 02:53:50;;;;;;;4.50;1.20;;;;;;;-1.79;100.00;101301.06;5040317;28;20204;-71
2021/12/20 02:56:16;;;;;;;1.90;1.03;;;;;;;-1.81;100.00;101301.00;5039612;28;20217;-71
2021/12/20 02:58:43;;;;;;;5.33;1.20;;;;;;;-1.84;100.00;101293.22;5043473;28;20191;-71
2021/12/20 03:01:09;;;;;;;2.57;1.07;;;;;;;-1.82;100.00;101308.63;5045867;28;20280;-71
2021/12/20 03:03:36;;;;;;;2.03;0.93;;;;;;;-1.81;100.00;101302.66;5049768;28;20204;-71
2021/12/20 03:06:09;;;;;;;1.70;0.73;;;;;;;-1.81;100.00;101302.66;5049797;28;20200;-71
2021/12/20 03:08:37;;;;;;;2.80;0.90;;;;;;;-1.85;100.00;101299.13;5053404;28;20300;-71
2021/12/20 03:11:04;;;;;;;0.97;0.90;;;;;;;-1.87;100.00;101308.44;5047808;28;20724;-71
2021/12/20 03:13:30;;;;;;;1.00;0.80;;;;;;;-1.85;100.00;101311.91;5052073;28;20660;-71
2021/12/20 03:15:57;;;;;;;1.33;0.80;;;;;;;-1.86;100.00;101305.09;5042752;28;20566;-71
2021/12/20 03:18:24;;;;;;;4.63;1.40;;;;;;;-1.89;100.00;101312.63;5048972;28;20273;-71
2021/12/20 03:20:50;;;;;;;2.83;1.00;;;;;;;-1.91;100.00;101317.69;5049764;28;20230;-71
2021/12/20 03:23:16;;;;;;;1.57;1.00;;;;;;;-1.95;100.00;101305.63;5037918;28;20203;-71
2021/12/20 03:25:44;;;;;;;1.37;1.00;;;;;;;-1.93;100.00;101308.25;5054952;28;20203;-71
2021/12/20 03:28:13;;;;;;;4.10;1.10;;;;;;;-1.93;100.00;101326.13;5049137;28;20707;-71
2021/12/20 03:30:39;;;;;;;4.27;1.00;;;;;;;-1.88;100.00;101311.84;5046051;28;20587;-71
2021/12/20 03:33:06;;;;;;;1.67;0.90;;;;;;;-1.87;100.00;101328.03;5043791;28;20206;-71
2021/12/20 03:35:32;;;;;;;2.47;0.97;;;;;;;-1.94;100.00;101325.25;5055597;28;20195;-71
2021/12/20 03:37:58;;;;;;;1.70;1.00;;;;;;;-1.94;100.00;101326.94;5039100;28;20206;-71
2021/12/20 03:40:25;;;;;;;1.30;0.87;;;;;;;-1.95;100.00;101323.50;5048604;28;20226;-71
2021/12/20 03:42:53;;;;;;;4.57;0.97;;;;;;;-1.94;100.00;101316.72;5043285;28;20706;-71
2021/12/20 03:45:19;;;;;;;1.40;0.77;;;;;;;-2.00;100.00;101316.50;5047626;28;20183;-71
2021/12/20 03:47:46;;;;;;;5.00;1.03;;;;;;;-1.99;100.00;101316.53;5044983;28;20237;-71
2021/12/20 03:50:14;;;;;;;1.33;0.80;;;;;;;-2.00;100.00;101322.47;5041205;28;20219;-71
2021/12/20 03:52:41;;;;;;;4.33;1.00;;;;;;;-1.97;100.00;101329.38;5050532;28;20274;-71
2021/12/20 03:55:09;;;;;;;3.07;1.07;;;;;;;-1.92;100.00;101331.31;5045669;28;20203;-71
2021/12/20 03:57:35;;;;;;;9.03;1.20;;;;;;;-1.95;100.00;101327.78;5046956;28;20824;-71
2021/12/20 04:00:05;;;;;;;2.53;0.80;;;;;;;-2.02;100.00;101325.78;5042542;28;20224;-71
2021/12/20 04:02:42;;;;;;;4.43;1.20;;;;;;;-2.08;100.00;101325.56;5050153;28;20224;-71
2021/12/20 04:05:08;;;;;;;2.47;1.00;;;;;;;-2.05;100.00;101320.56;5039862;28;20207;-71
2021/12/20 04:07:36;;;;;;;1.33;0.70;;;;;;;-2.12;100.00;101328.00;5058645;28;20225;-71
2021/12/20 04:10:03;;;;;;;2.43;0.70;;;;;;;-2.14;100.00;101323.66;5043903;28;20237;-71
2021/12/20 04:12:30;;;;;;;3.77;1.00;;;;;;;-2.14;100.00;101331.34;5048855;28;20198;-71
2021/12/20 04:14:57;;;;;;;1.83;0.90;;;;;;;-2.13;100.00;101331.38;5046814;28;20198;-71
2021/12/20 04:17:25;;;;;;;5.47;1.20;;;;;;;-2.15;100.00;101317.66;5042544;28;20301;-71
2021/12/20 04:19:51;;;;;;;3.37;1.10;;;;;;;-2.13;100.00;101328.84;5056633;28;20219;-71
2021/12/20 04:22:19;;;;;;;3.43;1.10;;;;;;;-2.11;100.00;101326.31;5044865;28;20210;-71
2021/12/20 04:24:45;;;;;;;7.30;1.30;;;;;;;-2.11;100.00;101327.19;5051191;28;20207;-71
2021/12/20 04:27:12;;;;;;;3.70;0.80;;;;;;;-2.10;100.00;101336.59;5046041;28;20211;-71
2021/12/20 04:29:39;;;;;;;2.27;0.80;;;;;;;-2.10;100.00;101328.94;5041072;28;20219;-71
2021/12/20 04:32:06;;;;;;;2.93;0.93;;;;;;;-2.14;100.00;101329.63;5038776;28;20198;-71
2021/12/20 04:34:34;;;;;;;4.20;1.20;;;;;;;-2.18;100.00;101326.91;5047707;28;20641;-71
2021/12/20 04:37:00;;;;;;;3.70;0.97;;;;;;;-2.20;100.00;101337.09;5039879;28;20203;-71
2021/12/20 04:39:30;;;;;;;7.80;1.10;;;;;;;-2.23;100.00;101349.75;5044078;28;20221;-71
2021/12/20 04:41:57;;;;;;;6.63;1.13;;;;;;;-2.28;100.00;101349.56;5039544;28;20203;-71
2021/12/20 04:44:23;;;;;;;2.80;0.70;;;;;;;-2.24;100.00;101342.00;5045844;28;20203;-71
2021/12/20 04:46:50;;;;;;;2.37;0.83;;;;;;;-2.29;100.00;101344.38;5044416;28;20218;-71
2021/12/20 04:49:17;;;;;;;2.90;1.13;;;;;;;-2.30;100.00;101337.56;5043677;28;20192;-71
2021/12/20 04:51:44;;;;;;;4.00;1.20;;;;;;;-2.30;100.00;101335.84;5045716;28;20250;-71
2021/12/20 04:54:11;;;;;;;6.27;1.07;;;;;;;-2.27;100.00;101340.19;5043450;28;20670;-71
2021/12/20 04:56:38;;;;;;;3.47;1.03;;;;;;;-2.22;100.00;101327.59;5051461;28;20282;-71
2021/12/20 04:59:04;;;;;;;3.73;1.17;;;;;;;-2.28;100.00;101334.22;5042246;28;20219;-71
2021/12/20 05:01:31;;;;;;;5.90;1.23;;;;;;;-2.32;100.00;101334.06;5041864;28;20230;-71
2021/12/20 05:03:57;;;;;;;7.27;1.10;;;;;;;-2.27;100.00;101327.44;5042354;28;20196;-71
2021/12/20 05:06:24;;;;;;;3.40;1.20;;;;;;;-2.30;100.00;101332.44;5041971;28;20210;-71
2021/12/20 05:08:55;;;;;;;3.33;1.10;;;;;;;-2.28;100.00;101339.34;5038352;28;20196;-71
2021/12/20 05:11:22;;;;;;;6.17;1.53;;;;;;;-2.27;100.00;101342.75;5040978;28;20294;-71
2021/12/20 05:13:49;;;;;;;3.33;1.10;;;;;;;-2.26;100.00;101343.66;5046744;28;20200;-71
2021/12/20 05:16:16;;;;;;;4.73;1.13;;;;;;;-2.32;100.00;101344.28;5038454;28;20214;-71
2021/12/20 05:18:42;;;;;;;5.53;1.10;;;;;;;-2.31;100.00;101352.00;5044710;28;20203;-71
2021/12/20 05:21:09;;;;;;;5.70;1.30;;;;;;;-2.33;100.00;101347.66;5045646;28;20222;-71
2021/12/20 05:23:35;;;;;;;4.17;1.27;;;;;;;-2.30;100.00;101355.44;5038194;28;20206;-71
2021/12/20 05:26:03;;;;;;;11.33;1.30;;;;;;;-2.31;100.00;101367.31;5041438;28;20210;-71
2021/12/20 05:28:29;;;;;;;8.50;2.10;;;;;;;-2.31;100.00;101364.75;5047428;28;20203;-71
2021/12/20 05:30:56;;;;;;;5.03;2.17;;;;;;;-2.28;100.00;101364.88;5036816;28;20321;-71
2021/12/20 05:33:23;;;;;;;6.03;1.40;;;;;;;-2.28;100.00;101364.03;5042721;28;20460;-71
2021/12/20 05:35:51;;;;;;;3.87;1.40;;;;;;;-2.32;100.00;101372.41;5049025;28;20689;-71
2021/12/20 05:38:17;;;;;;;6.73;3.13;;;;;;;-2.35;100.00;101369.72;5046908;28;20237;-71
2021/12/20 05:40:44;;;;;;;5.70;1.90;;;;;;;-2.37;100.00;101373.91;5042613;28;20250;-71
2021/12/20 05:43:11;;;;;;;5.53;2.20;;;;;;;-2.38;100.00;101383.22;5048269;28;20202;-71
2021/12/20 05:45:38;;;;;;;7.37;2.53;;;;;;;-2.38;100.00;101377.25;5044990;28;20213;-71
2021/12/20 05:48:05;;;;;;;3.03;1.33;;;;;;;-2.37;100.00;101377.31;5039990;28;20203;-71
2021/12/20 05:50:31;;;;;;;9.57;2.27;;;;;;;-2.34;100.00;101386.75;5049158;28;20899;-71
2021/12/20 05:52:58;;;;;;;7.97;3.07;;;;;;;-2.39;100.00;101388.25;5048952;28;20535;-71
2021/12/20 05:55:24;;;;;;;7.73;2.17;;;;;;;-2.35;100.00;101392.69;5042402;28;20206;-71
2021/12/20 05:57:51;;;;;;;7.77;2.73;;;;;;;-2.37;100.00;101389.22;5047173;28;20206;-71
2021/12/20 06:00:23;;;;;;;4.57;1.83;;;;;;;-2.37;100.00;101391.78;5049319;28;20222;-71
2021/12/20 06:02:51;;;;;;;7.03;1.70;;;;;;;-2.46;100.00;101392.28;5050685;28;20458;-71
2021/12/20 06:05:18;;;;;;;27.07;9.33;;;;;;;-2.40;100.00;101401.88;5054503;28;20202;-71
2021/12/20 06:07:44;;;;;;;24.30;11.50;;;;;;;-2.44;100.00;101398.31;5047521;28;20588;-71
2021/12/20 06:10:14;;;;;;;19.93;8.90;;;;;;;-2.44;100.00;101403.44;5045358;28;20231;-71
2021/12/20 06:12:41;;;;;;;9.80;2.97;;;;;;;-2.44;100.00;101402.56;5047790;28;20275;-71
2021/12/20 06:15:08;;;;;;;8.93;4.60;;;;;;;-2.50;100.00;101405.72;5048141;28;20211;-71
2021/12/20 06:17:36;;;;;;;7.50;3.30;;;;;;;-2.54;100.00;101397.06;5046547;28;20213;-71
2021/12/20 06:20:04;;;;;;;4.17;1.90;;;;;;;-2.52;100.00;101404.81;5047766;28;20238;-71
2021/12/20 06:22:30;;;;;;;5.47;1.20;;;;;;;-2.47;100.00;101410.97;5046997;28;20195;-71
2021/12/20 06:24:56;;;;;;;3.97;1.33;;;;;;;-2.51;100.00;101415.09;5036840;28;20198;-71
2021/12/20 06:27:23;;;;;;;2.10;1.33;;;;;;;-2.53;100.00;101416.72;5047042;28;20214;-71
2021/12/20 06:29:49;;;;;;;7.23;1.30;;;;;;;-2.57;100.00;101417.41;5047932;28;20481;-71
2021/12/20 06:32:15;;;;;;;3.33;1.20;;;;;;;-2.51;100.00;101427.00;5054538;28;20199;-71
2021/12/20 06:34:43;;;;;;;4.07;1.30;;;;;;;-2.53;100.00;101421.81;5052050;28;20207;-71
2021/12/20 06:37:11;;;;;;;3.80;1.13;;;;;;;-2.57;100.00;101425.06;5047703;28;20815;-71
2021/12/20 06:39:38;;;;;;;5.43;1.20;;;;;;;-2.57;100.00;101421.63;5040997;28;20477;-71
2021/12/20 06:42:05;;;;;;;6.70;2.27;;;;;;;-2.56;100.00;101433.59;5043913;28;20807;-71
2021/12/20 06:44:31;;;;;;;4.80;1.10;;;;;;;-2.58;100.00;101432.66;5047695;28;20200;-71
2021/12/20 06:46:58;;;;;;;4.33;1.37;;;;;;;-2.63;100.00;101441.81;5040332;28;20680;-71
2021/12/20 06:49:25;;;;;;;5.70;1.50;;;;;;;-2.63;100.00;101446.91;5050507;28;20960;-71
2021/12/20 06:51:56;;;;;;;2.77;1.10;;;;;;;-2.64;100.00;101453.69;5041339;28;20971;-71
2021/12/20 06:54:22;;;;;;;3.80;1.23;;;;;;;-2.62;100.00;101448.66;5051601;28;20453;-71
2021/12/20 06:56:49;;;;;;;4.43;1.23;;;;;;;-2.64;100.00;101448.59;5043066;28;20474;-71
2021/12/20 06:59:15;;;;;;;5.80;1.07;;;;;;;-2.67;100.00;101456.13;5043791;28;20216;-71
2021/12/20 07:01:42;;;;;;;4.13;1.00;;;;;;;-2.64;100.00;101450.28;5040897;28;20207;-71
2021/12/20 07:04:12;;;;;;;5.27;1.40;;;;;;;-2.67;100.00;101458.69;5047171;28;20603;-71
2021/12/20 07:06:38;;;;;;;5.23;1.60;;;;;;;-2.72;100.00;101457.63;5049290;28;20540;-71
2021/12/20 07:09:07;;;;;;;3.07;1.50;;;;;;;-2.79;100.00;101463.28;5043372;28;20459;-71
2021/12/20 07:11:33;;;;;;;6.27;1.17;;;;;;;-2.79;100.00;101465.84;5042645;28;20232;-71
2021/12/20 07:14:00;;;;;;;5.00;1.27;;;;;;;-2.78;100.00;101465.91;5039397;28;20195;-71
2021/12/20 07:16:31;;;;;;;5.10;1.17;;;;;;;-2.77;100.00;101469.31;5047249;28;20469;-71
2021/12/20 07:18:58;;;;;;;3.27;1.40;;;;;;;-2.80;100.00;101471.75;5046389;28;20480;-71
2021/12/20 07:21:24;;;;;;;2.63;1.10;;;;;;;-2.82;100.00;101487.00;5048041;28;20479;-71
2021/12/20 07:23:51;;;;;;;6.13;1.43;;;;;;;-2.79;100.00;101482.03;5045704;28;20210;-71
2021/12/20 07:26:19;;;;;;;1.83;1.17;;;;;;;-2.82;100.00;101483.56;5045853;28;20473;-71
2021/12/20 07:28:45;;;;;;;3.83;1.37;;;;;;;-2.80;100.00;101477.72;5037079;28;20461;-71
2021/12/20 07:31:13;;;;;;;4.20;1.20;;;;;;;-2.80;100.00;101485.38;5043745;28;20488;-71
2021/12/20 07:33:40;;;;;;;5.63;1.90;;;;;;;-2.76;100.00;101487.25;5044443;28;20222;-70
2021/12/20 07:36:07;;;;;;;2.97;1.23;;;;;;;-2.73;100.00;101476.28;5046893;28;20460;-71
2021/12/20 07:38:35;;;;;;;5.37;1.20;;;;;;;-2.68;100.00;101485.88;5049410;28;20460;-71
2021/12/20 07:41:02;;;;;;;3.13;1.43;;;;;;;-2.71;100.00;101485.78;5045178;28;20221;-71
2021/12/20 07:43:30;;;;;;;8.40;1.53;;;;;;;-2.75;100.00;101489.00;5056614;28;20464;-71
2021/12/20 07:45:57;;;;;;;6.23;1.50;;;;;;;-2.72;100.00;101494.22;5046032;28;20565;-71
2021/12/20 07:48:23;;;;;;;3.60;1.40;;;;;;;-2.68;100.00;101495.22;5044645;28;20451;-71
2021/12/20 07:50:51;;;;;;;4.70;1.73;;;;;;;-2.66;100.00;101506.38;5046100;28;20469;-71
2021/12/20 07:53:18;;;;;;;2.37;1.30;;;;;;;-2.63;100.00;101505.66;5048927;28;20218;-71
2021/12/20 07:55:44;;;;;;;9.23;1.50;;;;;;;-2.63;100.00;101496.28;5044873;28;20558;-71
2021/12/20 07:58:11;;;;;;;6.27;1.63;;;;;;;-2.57;100.00;101509.34;5042874;28;20691;-71
2021/12/20 08:00:39;;;;;;;4.87;1.40;;;;;;;-2.53;100.00;101506.09;5046566;28;20239;-71
2021/12/20 08:03:05;;;;;;;2.13;1.03;;;;;;;-2.45;100.00;101508.09;5045198;28;20246;-71
2021/12/20 08:05:32;;;;;;;5.23;1.40;;;;;;;-2.36;100.00;101509.31;5046569;28;20614;-71
2021/12/20 08:07:59;;;;;;;5.30;1.63;;;;;;;-2.31;100.00;101512.94;5044934;28;20194;-71
2021/12/20 08:10:28;;;;;;;3.67;1.40;;;;;;;-2.23;100.00;101518.38;5037471;28;20231;-71
2021/12/20 08:12:55;;;;;;;7.70;1.30;;;;;;;-2.15;100.00;101516.09;5041781;28;20202;-71
2021/12/20 08:15:22;;;;;;;4.67;1.97;;;;;;;-2.10;100.00;101515.47;5045149;28;20199;-71
2021/12/20 08:17:51;;;;;;;6.10;1.50;;;;;;;-2.07;100.00;101521.53;5039729;28;20192;-71
2021/12/20 08:20:17;;;;;;;3.50;2.30;;;;;;;-2.07;100.00;101522.41;5049505;28;20226;-71
2021/12/20 08:22:44;;;;;;;5.10;1.40;;;;;;;-2.04;100.00;101529.31;5042496;28;20216;-71
2021/12/20 08:25:10;;;;;;;11.47;1.93;;;;;;;-2.03;100.00;101528.50;5046281;28;20195;-71
2021/12/20 08:27:37;;;;;;;2.30;1.37;;;;;;;-2.04;100.00;101529.31;5043657;28;20327;-72
2021/12/20 08:30:04;;;;;;;2.97;1.47;;;;;;;-2.06;100.00;101536.03;5043568;28;20212;-71
2021/12/20 08:32:31;;;;;;;1.67;1.27;;;;;;;-2.07;100.00;101530.06;5040034;28;20199;-71
2021/12/20 08:34:59;;;;;;;6.43;1.87;;;;;;;-2.06;100.00;101536.91;5043563;28;20214;-71
2021/12/20 08:37:25;;;;;;;4.57;1.60;;;;;;;-2.10;100.00;101537.63;5047463;28;20230;-71
2021/12/20 08:39:52;;;;;;;13.37;1.87;;;;;;;-2.08;100.00;101537.69;5043603;28;20285;-71
2021/12/20 08:42:19;;;;;;;5.27;1.87;;;;;;;-2.04;100.00;101539.53;5049672;28;20917;-71
2021/12/20 08:44:45;;;;;;;8.70;1.83;;;;;;;-2.01;100.00;101537.09;5045605;28;20206;-71
2021/12/20 08:47:12;;;;;;;8.83;3.60;;;;;;;-1.97;100.00;101536.41;5045852;28;20203;-71
2021/12/20 08:49:39;;;;;;;7.43;1.83;;;;;;;-1.94;100.00;101542.50;5044460;28;20219;-71
2021/12/20 08:52:07;;;;;;;17.67;5.70;;;;;;;-1.91;100.00;101537.53;5048220;28;20206;-71
2021/12/20 08:54:34;;;;;;;27.63;7.33;;;;;;;-1.84;100.00;101543.75;5044160;28;20210;-71
2021/12/20 08:57:00;;;;;;;14.60;4.90;;;;;;;-1.81;100.00;101549.00;5038886;28;20195;-71
2021/12/20 08:59:27;;;;;;;11.73;4.73;;;;;;;-1.72;100.00;101557.03;5052449;28;20219;-71
2021/12/20 09:01:54;;;;;;;17.87;5.33;;;;;;;-1.61;100.00;101554.88;5042740;28;20262;-71
2021/12/20 09:04:20;;;;;;;12.67;3.03;;;;;;;-1.50;100.00;101549.31;5041574;28;20211;-71
2021/12/20 09:06:49;;;;;;;16.83;5.60;;;;;;;-1.43;100.00;101554.69;5044534;28;20202;-71
2021/12/20 09:09:17;;;;;;;17.37;5.37;;;;;;;-1.36;100.00;101563.47;5049611;28;20195;-71
2021/12/20 09:11:45;;;;;;;15.03;5.17;;;;;;;-1.25;100.00;101564.78;5035398;28;20231;-71
2021/12/20 09:14:11;;;;;;;9.20;3.20;;;;;;;-1.14;100.00;101572.84;5041740;28;20227;-71
2021/12/20 09:16:38;;;;;;;6.27;3.47;;;;;;;-1.07;100.00;101571.34;5035408;28;20214;-71
2021/12/20 09:19:04;;;;;;;7.37;2.93;;;;;;;-1.01;100.00;101571.59;5046274;28;20207;-71
2021/12/20 09:21:31;;;;;;;4.33;2.30;;;;;;;-1.00;100.00;101566.53;5038875;28;20222;-71
2021/12/20 09:23:57;;;;;;;9.03;3.00;;;;;;;-0.97;100.00;101569.22;5046571;28;20195;-71
2021/12/20 09:26:25;;;;;;;6.70;3.10;;;;;;;-0.89;100.00;101576.28;5044024;28;20222;-71
2021/12/20 09:28:52;;;;;;;9.23;3.47;;;;;;;-0.84;100.00;101575.63;5045761;28;20231;-71
2021/12/20 09:31:20;;;;;;;10.53;3.53;;;;;;;-0.79;100.00;101581.78;5044382;28;20230;-71
2021/12/20 09:33:46;;;;;;;6.67;2.90;;;;;;;-0.73;100.00;101582.81;5040029;28;20200;-71
2021/12/20 09:36:12;;;;;;;7.00;3.00;;;;;;;-0.66;100.00;101584.78;5043490;28;20195;-71
2021/12/20 09:38:39;;;;;;;9.33;2.97;;;;;;;-0.61;100.00;101594.38;5037559;28;20584;-71
2021/12/20 09:41:27;;;;;;;7.97;2.73;;;;;;;-0.59;100.00;101594.44;5051994;28;20223;-71
2021/12/20 09:43:56;;;;;;;7.90;2.30;;;;;;;-0.54;100.00;101598.03;5041314;28;20733;-71
2021/12/20 09:46:26;;;;;;;8.13;2.77;;;;;;;-0.53;100.00;101594.63;5050131;28;20684;-71
2021/12/20 09:48:52;;;;;;;7.83;2.10;;;;;;;-0.49;100.00;101596.50;5038951;28;20207;-71
2021/12/20 09:51:19;;;;;;;4.90;2.33;;;;;;;-0.45;100.00;101589.78;5053755;28;20222;-71
2021/12/20 09:53:45;;;;;;;5.77;1.87;;;;;;;-0.41;100.00;101597.59;5046229;28;20207;-71
2021/12/20 09:56:12;;;;;;;4.23;1.90;;;;;;;-0.35;100.00;101602.09;5047088;28;20476;-71
2021/12/20 09:58:41;;;;;;;6.30;2.20;;;;;;;-0.32;100.00;101609.88;5044820;28;20202;-71
2021/12/20 10:01:12;;;;;;;4.93;2.00;;;;;;;-0.31;100.00;101610.75;5039502;28;20226;-72
2021/12/20 10:03:39;;;;;;;4.43;2.07;;;;;;;-0.25;100.00;101605.81;5048281;28;20221;-72
2021/12/20 10:06:06;;;;;;;7.40;1.93;;;;;;;-0.25;100.00;101610.94;5043897;28;20217;-71
2021/12/20 10:08:34;;;;;;;11.23;1.90;;;;;;;-0.20;100.00;101614.53;5057993;28;20205;-71
2021/12/20 10:11:04;;;;;;;5.50;1.83;;;;;;;-0.18;100.00;101605.22;5037553;28;20218;-71
2021/12/20 10:13:33;;;;;;;5.23;1.87;;;;;;;-0.15;100.00;101610.44;5043342;28;20319;-71
2021/12/20 10:16:01;;;;;;;3.90;2.00;;;;;;;-0.09;100.00;101604.66;5033838;28;20215;-71
2021/12/20 10:18:32;;;;;;;4.07;1.50;;;;;;;-0.09;100.00;101609.78;5038434;28;20202;-71
2021/12/20 10:21:01;;;;;;;7.70;1.77;;;;;;;-0.04;100.00;101608.22;5027258;28;20340;-71
2021/12/20 10:23:30;;;;;;;4.73;1.50;;;;;;;-0.02;100.00;101615.19;5038439;28;20215;-71
2021/12/20 10:25:59;;;;;;;4.47;1.53;;;;;;;0.02;100.00;101608.44;5042665;28;20601;-71
2021/12/20 10:28:30;;;;;;;10.73;1.80;;;;;;;0.03;100.00;101610.19;5036799;28;20208;-72
2021/12/20 10:30:59;;;;;;;7.20;1.57;;;;;;;0.10;100.00;101609.56;5036386;28;20222;-72
2021/12/20 10:33:26;;;;;;;2.93;1.40;;;;;;;0.11;100.00;101613.88;5034808;28;20564;-72
2021/12/20 10:35:56;;;;;;;13.33;3.03;;;;;;;0.14;100.00;101613.09;5046563;28;20202;-71
2021/12/20 10:38:31;;;;;;;18.87;6.80;;;;;;;0.12;100.00;101613.06;5042391;28;20673;-71
2021/12/20 10:41:01;;;;;;;6.40;2.60;;;;;;;0.15;100.00;101613.13;5041098;28;20283;-72
2021/12/20 10:43:35;;;;;;;5.30;1.63;;;;;;;0.17;100.00;101623.44;5040964;28;20215;-71
2021/12/20 10:46:10;;;;;;;4.07;2.00;;;;;;;0.22;100.00;101619.34;5047170;28;20199;-71
2021/12/20 10:48:36;;;;;;;3.40;1.80;;;;;;;0.22;100.00;101624.47;5041276;28;20199;-71
2021/12/20 10:51:04;;;;;;;4.93;1.40;;;;;;;0.26;100.00;101621.16;5053531;28;20220;-71
2021/12/20 10:53:30;;;;;;;3.30;1.60;;;;;;;0.26;100.00;101622.88;5041045;28;20213;-71
2021/12/20 10:55:59;;;;;;;2.47;1.47;;;;;;;0.25;100.00;101614.31;5047206;28;20200;-71
2021/12/20 10:58:29;;;;;;;4.77;1.53;;;;;;;0.27;100.00;101619.50;5043818;28;20223;-72
2021/12/20 11:01:06;;;;;;;3.73;1.50;;;;;;;0.29;100.00;101613.59;5049738;28;20224;-71
2021/12/20 11:03:37;;;;;;;2.60;1.17;;;;;;;0.31;100.00;101621.34;5041455;28;20629;-71
2021/12/20 11:06:25;;;;;;;5.53;1.90;;;;;;;0.31;100.00;101616.19;5047417;28;20371;-71
2021/12/20 11:09:08;;;;;;;5.37;1.90;;;;;;;0.32;100.00;101615.38;5040726;28;20607;-70
2021/12/20 11:11:36;;;;;;;6.83;1.67;;;;;;;0.25;100.00;101616.03;5044806;28;20234;-71
2021/12/20 11:14:05;;;;;;;5.13;1.90;;;;;;;0.21;100.00;101619.28;5038763;28;20685;-71
2021/12/20 11:16:34;;;;;;;6.30;1.93;;;;;;;0.28;100.00;101611.84;5047468;28;20254;-72
2021/12/20 11:19:17;;;;;;;5.47;1.80;;;;;;;0.35;100.00;101620.59;5038019;28;20216;-71
2021/12/20 11:21:51;;;;;;;8.10;2.03;;;;;;;0.43;100.00;101618.28;5041172;28;20219;-71
2021/12/20 11:24:21;;;;;;;5.77;1.73;;;;;;;0.55;100.00;101613.53;5042981;28;20558;-71
2021/12/20 11:26:49;;;;;;;3.53;1.70;;;;;;;0.64;100.00;101607.81;5044702;28;20219;-71
2021/12/20 11:29:17;;;;;;;5.60;2.00;;;;;;;0.72;100.00;101614.91;5043107;28;20203;-71